Healy, Kansas
Current Conditions -  °F | °C
As of 9:54 AM on Sunday 25 Jan 2015 (Local Time) from KGCK Reporting Station
Clear Clear  
Wind Chill: 35°   Ceiling: Unl
Heat Index: 44°   Visibility: 10mi
Dew Point: 23°   Wind: 26mph
Humidity: 43%   Direction: 350°N
Pressure: 30.11"   Gusts: 32mph
Location:  38.6°N, 100.62°W
Report Text: KGCK 251554Z 35023G28KT 10SM CLR 07/M05 A3011 RMK AO2 PK WND 35028/1553 SLP194 T00671050
Loading
Personal Weather Stations






























Interactive Weather Map New forecast layout! Learn more

10-Day Weather Forecast

Advertisements
Track Severe Weather on mobile